Time;durP1;ratioP1;P1;durP2;ratioP2;P2;SDS_P1;SDS_P2;PMS_P1;PMS_P2;Temp;Humidity;BMP_temperature;BMP_pressure;BME280_temperature;BME280_humidity;BME280_pressure;Samples;Min_cycle;Max_cycle;Signal;HPM_P1;HPM_P2
2021/03/11 00:00:04;;;;;;;26.17;16.13;;;8.10;81.50;;;;;;4998452;28;20261;-76
2021/03/11 00:02:30;;;;;;;24.37;15.87;;;8.10;81.60;;;;;;5013673;28;20025;-75
2021/03/11 00:04:56;;;;;;;24.70;15.83;;;8.10;81.60;;;;;;5014919;28;20044;-75
2021/03/11 00:07:21;;;;;;;27.10;15.93;;;8.10;81.80;;;;;;5014996;28;20473;-76
2021/03/11 00:09:47;;;;;;;26.90;17.13;;;8.10;81.90;;;;;;5014735;28;20026;-82
2021/03/11 00:12:12;;;;;;;24.97;15.40;;;8.10;82.10;;;;;;5015438;28;20068;-76
2021/03/11 00:14:38;;;;;;;23.67;15.47;;;8.10;82.00;;;;;;5033461;28;20108;-74
2021/03/11 00:17:05;;;;;;;23.33;15.83;;;8.10;82.10;;;;;;4998269;28;20037;-75
2021/03/11 00:19:30;;;;;;;24.73;15.17;;;8.10;82.20;;;;;;4998891;28;20040;-77
2021/03/11 00:21:57;;;;;;;22.73;14.60;;;8.10;82.40;;;;;;4998222;28;20029;-76
2021/03/11 00:24:23;;;;;;;21.13;14.77;;;8.10;82.60;;;;;;4998595;28;20381;-75
2021/03/11 00:26:48;;;;;;;23.50;14.93;;;8.10;82.70;;;;;;5015259;28;20026;-84
2021/03/11 00:29:14;;;;;;;23.07;14.93;;;8.10;82.70;;;;;;5014449;28;20132;-76
2021/03/11 00:31:40;;;;;;;21.63;14.80;;;8.00;82.90;;;;;;5014751;28;20029;-77
2021/03/11 00:34:05;;;;;;;24.53;15.03;;;8.00;83.00;;;;;;5013965;28;20041;-77
2021/03/11 00:36:31;;;;;;;23.33;14.40;;;8.00;83.20;;;;;;5015209;28;20381;-77
2021/03/11 00:38:57;;;;;;;23.50;15.03;;;8.00;83.00;;;;;;4997218;28;20037;-78
2021/03/11 00:41:22;;;;;;;22.57;15.30;;;8.00;82.90;;;;;;5015294;28;20040;-76
2021/03/11 00:43:48;;;;;;;17.43;12.53;;;8.10;83.00;;;;;;4997417;28;20035;-83
2021/03/11 00:46:13;;;;;;;21.23;13.00;;;8.10;82.90;;;;;;5014935;28;20128;-79
2021/03/11 00:48:39;;;;;;;21.93;14.17;;;8.10;82.80;;;;;;5014948;28;20037;-77
2021/03/11 00:51:05;;;;;;;20.40;13.87;;;8.20;82.30;;;;;;5014194;28;20044;-76
2021/03/11 00:53:30;;;;;;;19.90;13.57;;;8.20;82.00;;;;;;5032414;28;20454;-76
2021/03/11 00:55:56;;;;;;;22.73;14.07;;;8.20;82.00;;;;;;5014174;28;20394;-76
2021/03/11 00:58:22;;;;;;;21.27;13.37;;;8.20;81.90;;;;;;5014782;28;20046;-76
2021/03/11 01:00:47;;;;;;;21.13;13.63;;;8.20;82.00;;;;;;4996876;28;20025;-80
2021/03/11 01:03:13;;;;;;;21.63;13.50;;;8.20;81.90;;;;;;5013422;28;20453;-77
2021/03/11 01:05:39;;;;;;;21.00;13.47;;;8.20;81.90;;;;;;5033072;28;20742;-78
2021/03/11 01:08:06;;;;;;;19.77;13.03;;;8.20;81.60;;;;;;5031832;28;20057;-77
2021/03/11 01:10:32;;;;;;;19.77;13.43;;;8.20;81.20;;;;;;4998769;28;20128;-78
2021/03/11 01:12:57;;;;;;;19.60;12.87;;;8.20;81.20;;;;;;5013408;28;20045;-78
2021/03/11 01:15:26;;;;;;;19.13;12.17;;;8.20;81.10;;;;;;5031602;28;20041;-74
2021/03/11 01:17:52;;;;;;;19.47;12.90;;;8.20;81.40;;;;;;5014284;28;20485;-84
2021/03/11 01:20:19;;;;;;;20.90;13.73;;;8.20;81.40;;;;;;5014851;28;20195;-75
2021/03/11 01:22:45;;;;;;;21.53;12.50;;;8.20;81.20;;;;;;5031676;28;20135;-74
2021/03/11 01:25:11;;;;;;;18.93;12.93;;;8.30;81.10;;;;;;5013461;28;20029;-76
2021/03/11 01:27:37;;;;;;;23.20;13.67;;;8.30;81.10;;;;;;5014242;28;20029;-75
2021/03/11 01:30:05;;;;;;;18.90;12.60;;;8.30;81.00;;;;;;5009184;28;20034;-75
2021/03/11 01:32:31;;;;;;;18.50;13.07;;;8.30;80.90;;;;;;5006185;28;20090;-75
2021/03/11 01:34:57;;;;;;;19.60;12.07;;;8.30;80.80;;;;;;5031695;28;20025;-76
2021/03/11 01:37:23;;;;;;;18.40;12.53;;;8.30;80.90;;;;;;5015377;28;20025;-75
2021/03/11 01:39:48;;;;;;;19.07;12.53;;;8.30;81.10;;;;;;4998606;28;20111;-77
2021/03/11 01:42:14;;;;;;;19.57;12.50;;;8.30;80.90;;;;;;4998647;28;20027;-76
2021/03/11 01:44:40;;;;;;;19.80;12.13;;;8.30;81.10;;;;;;5015220;28;20021;-75
2021/03/11 01:47:05;;;;;;;18.03;11.20;;;8.30;81.00;;;;;;5012637;28;20038;-77
2021/03/11 01:49:31;;;;;;;16.93;11.83;;;8.30;81.10;;;;;;5031874;28;20083;-75
2021/03/11 01:51:57;;;;;;;17.27;11.60;;;8.40;81.30;;;;;;5013283;28;20466;-81
2021/03/11 01:54:23;;;;;;;16.27;10.80;;;8.40;81.30;;;;;;5030712;28;20482;-76
2021/03/11 01:56:50;;;;;;;15.70;10.63;;;8.40;81.40;;;;;;5014167;28;20040;-75
2021/03/11 01:59:16;;;;;;;17.10;11.37;;;8.40;81.50;;;;;;5029969;28;20021;-74
2021/03/11 02:01:42;;;;;;;15.83;10.50;;;8.40;80.90;;;;;;5030221;28;20108;-75
2021/03/11 02:04:08;;;;;;;16.57;10.47;;;8.40;81.00;;;;;;5030379;28;20037;-79
2021/03/11 02:06:34;;;;;;;15.07;9.90;;;8.40;81.40;;;;;;5030896;28;20045;-74
2021/03/11 02:09:00;;;;;;;15.13;10.43;;;8.40;81.80;;;;;;5013242;28;20086;-74
2021/03/11 02:11:27;;;;;;;15.77;10.60;;;8.40;81.90;;;;;;5013336;28;20042;-74
2021/03/11 02:14:17;;;;;;;13.50;9.43;;;8.50;81.90;;;;;;5034850;28;20026;-73
2021/03/11 02:17:04;;;;;;;11.03;8.23;;;8.50;82.10;;;;;;5010887;28;20485;-73
2021/03/11 02:19:39;;;;;;;15.83;9.07;;;8.50;82.20;;;;;;5034952;28;20021;-73
2021/03/11 02:22:29;;;;;;;11.70;8.23;;;8.50;82.40;;;;;;5033595;28;20064;-73
2021/03/11 02:25:04;;;;;;;13.90;9.77;;;8.50;82.60;;;;;;5034592;28;20034;-74
2021/03/11 02:27:51;;;;;;;13.13;9.00;;;8.50;82.50;;;;;;5035359;28;20532;-73
2021/03/11 02:30:17;;;;;;;12.03;7.80;;;8.50;82.60;;;;;;5016068;28;20116;-75
2021/03/11 02:32:44;;;;;;;10.53;8.33;;;8.50;82.80;;;;;;5000722;28;20052;-76
2021/03/11 02:35:10;;;;;;;10.23;7.67;;;8.50;82.80;;;;;;4982701;28;20026;-79
2021/03/11 02:37:46;;;;;;;11.37;7.73;;;8.50;82.90;;;;;;5016737;28;20029;-75
2021/03/11 02:40:16;;;;;;;11.13;7.83;;;8.50;82.80;;;;;;5016715;28;20040;-75
2021/03/11 02:42:43;;;;;;;11.47;7.43;;;8.60;83.00;;;;;;5028762;28;20104;-75
2021/03/11 02:45:12;;;;;;;10.40;7.27;;;8.60;83.30;;;;;;5032294;28;20025;-76
2021/03/11 02:47:38;;;;;;;8.97;7.20;;;8.50;83.30;;;;;;5034247;28;20030;-75
2021/03/11 02:50:06;;;;;;;9.53;6.93;;;8.50;83.60;;;;;;5033856;28;20033;-81
2021/03/11 02:52:33;;;;;;;11.50;8.20;;;8.50;84.20;;;;;;5016538;28;20033;-75
2021/03/11 02:55:00;;;;;;;10.90;6.90;;;8.40;84.50;;;;;;5034799;28;20025;-79
2021/03/11 02:57:27;;;;;;;13.10;7.13;;;8.40;84.90;;;;;;5000236;28;20037;-74
2021/03/11 02:59:54;;;;;;;9.60;7.63;;;8.40;85.10;;;;;;5015584;28;20120;-75
2021/03/11 03:02:20;;;;;;;11.03;7.87;;;8.40;85.20;;;;;;5014675;28;20038;-73
2021/03/11 03:04:50;;;;;;;9.20;7.23;;;8.40;85.40;;;;;;5034644;28;20021;-74
2021/03/11 03:07:18;;;;;;;10.10;6.63;;;8.40;85.50;;;;;;5034393;28;20068;-79
2021/03/11 03:09:50;;;;;;;9.03;7.53;;;8.50;85.60;;;;;;5034277;28;20029;-75
2021/03/11 03:12:17;;;;;;;10.23;6.10;;;8.40;85.70;;;;;;5033532;28;20042;-76
2021/03/11 03:14:46;;;;;;;9.57;7.53;;;8.40;85.80;;;;;;5016246;28;20021;-74
2021/03/11 03:17:14;;;;;;;10.07;7.47;;;8.40;85.90;;;;;;5032060;28;20101;-73
2021/03/11 03:19:41;;;;;;;10.47;7.90;;;8.40;86.10;;;;;;5017064;28;20481;-77
2021/03/11 03:22:07;;;;;;;9.70;7.00;;;8.40;86.20;;;;;;5015123;28;20477;-79
2021/03/11 03:24:34;;;;;;;12.47;7.00;;;8.40;86.30;;;;;;5033071;28;20026;-75
2021/03/11 03:27:00;;;;;;;9.97;7.37;;;8.50;86.50;;;;;;5016349;28;20539;-75
2021/03/11 03:29:26;;;;;;;10.53;7.47;;;8.50;86.50;;;;;;5015781;28;20041;-76
2021/03/11 03:31:52;;;;;;;11.07;6.83;;;8.40;86.70;;;;;;5015579;28;20045;-76
2021/03/11 03:34:18;;;;;;;9.73;7.50;;;8.40;86.90;;;;;;5033506;28;20026;-76
2021/03/11 03:36:43;;;;;;;8.40;7.07;;;8.40;87.00;;;;;;5034586;28;20512;-74
2021/03/11 03:39:09;;;;;;;10.43;8.30;;;8.40;87.10;;;;;;5015917;28;20087;-77
2021/03/11 03:41:38;;;;;;;9.03;7.73;;;8.50;87.20;;;;;;5001455;28;20039;-76
2021/03/11 03:44:06;;;;;;;11.83;9.13;;;8.50;87.20;;;;;;5017960;28;20020;-82
2021/03/11 03:46:33;;;;;;;11.10;8.13;;;8.50;87.20;;;;;;5017771;28;20024;-77
2021/03/11 03:49:02;;;;;;;12.50;8.40;;;8.50;87.30;;;;;;5013908;28;20030;-77
2021/03/11 03:51:30;;;;;;;10.97;8.87;;;8.60;87.20;;;;;;5035982;28;20026;-76
2021/03/11 03:54:00;;;;;;;10.37;8.23;;;8.60;87.00;;;;;;5037427;28;20028;-77
2021/03/11 03:56:34;;;;;;;12.23;9.53;;;8.70;86.90;;;;;;5020356;28;20021;-77
2021/03/11 03:59:05;;;;;;;11.13;8.20;;;8.60;86.70;;;;;;5021117;28;20045;-77
2021/03/11 04:01:35;;;;;;;12.47;9.40;;;8.70;86.70;;;;;;5020402;28;20028;-77
2021/03/11 04:04:04;;;;;;;13.17;9.70;;;8.70;86.70;;;;;;5021060;28;20064;-76
2021/03/11 04:06:31;;;;;;;13.33;9.57;;;8.80;86.60;;;;;;5041105;28;20029;-76
2021/03/11 04:08:58;;;;;;;12.00;8.80;;;8.80;86.20;;;;;;5026623;28;20029;-78
2021/03/11 04:11:23;;;;;;;13.60;9.83;;;8.90;86.20;;;;;;5044240;28;20041;-76
2021/03/11 04:13:51;;;;;;;13.93;9.87;;;8.90;86.00;;;;;;5011201;28;20026;-79
2021/03/11 04:16:18;;;;;;;14.30;9.73;;;9.00;86.00;;;;;;5043730;28;20037;-76
2021/03/11 04:18:44;;;;;;;13.00;9.13;;;9.00;85.90;;;;;;5028313;28;20037;-76
2021/03/11 04:21:11;;;;;;;12.47;8.87;;;9.00;85.80;;;;;;5005849;28;20036;-80
2021/03/11 04:23:38;;;;;;;11.00;8.77;;;9.00;85.80;;;;;;5043695;28;20029;-75
2021/03/11 04:26:05;;;;;;;11.70;9.30;;;9.10;85.60;;;;;;5045772;28;20037;-75
2021/03/11 04:28:32;;;;;;;13.33;9.77;;;9.10;85.60;;;;;;5011381;28;20171;-75
2021/03/11 04:30:58;;;;;;;14.27;9.10;;;9.10;85.30;;;;;;5025533;28;20045;-75
2021/03/11 04:33:25;;;;;;;12.13;9.03;;;9.20;85.20;;;;;;5018595;28;20034;-72
2021/03/11 04:35:52;;;;;;;13.00;9.67;;;9.20;85.30;;;;;;5031773;28;20029;-75
2021/03/11 04:38:17;;;;;;;11.57;8.97;;;9.20;85.30;;;;;;5031260;28;20100;-72
2021/03/11 04:40:43;;;;;;;13.13;9.80;;;9.30;85.30;;;;;;5017129;28;20086;-73
2021/03/11 04:43:10;;;;;;;10.10;9.00;;;9.20;85.30;;;;;;5018724;28;20044;-79
2021/03/11 04:45:35;;;;;;;13.40;8.93;;;9.30;85.40;;;;;;5037107;28;20484;-75
2021/03/11 04:48:02;;;;;;;12.63;9.23;;;9.30;85.50;;;;;;5002366;28;20060;-74
2021/03/11 04:50:29;;;;;;;14.57;10.10;;;9.40;85.60;;;;;;4997976;28;20132;-73
2021/03/11 04:52:56;;;;;;;14.27;9.73;;;9.30;85.80;;;;;;5030857;28;20032;-74
2021/03/11 04:55:22;;;;;;;13.43;10.10;;;9.30;86.10;;;;;;5030835;28;20116;-75
2021/03/11 04:57:48;;;;;;;11.53;9.40;;;9.30;86.40;;;;;;5015288;28;20021;-76
2021/03/11 05:00:15;;;;;;;13.07;9.40;;;9.30;86.70;;;;;;5002112;28;20042;-77
2021/03/11 05:02:45;;;;;;;14.67;8.77;;;9.30;86.90;;;;;;5019240;28;20026;-75
2021/03/11 05:05:11;;;;;;;13.13;9.70;;;9.30;87.00;;;;;;5018098;28;20029;-83
2021/03/11 05:07:37;;;;;;;14.37;9.27;;;9.30;87.40;;;;;;5018454;28;20049;-76
2021/03/11 05:10:03;;;;;;;11.97;8.60;;;9.30;87.20;;;;;;4999724;28;20033;-77
2021/03/11 05:12:28;;;;;;;12.20;8.77;;;9.30;87.20;;;;;;5014735;28;20041;-77
2021/03/11 05:14:54;;;;;;;12.93;9.10;;;9.30;87.10;;;;;;5032310;28;20025;-76
2021/03/11 05:17:20;;;;;;;12.90;9.30;;;9.40;87.10;;;;;;4997524;28;20025;-77
2021/03/11 05:19:46;;;;;;;11.17;9.00;;;9.40;87.60;;;;;;5014226;28;20044;-76
2021/03/11 05:22:11;;;;;;;11.33;8.83;;;9.40;87.00;;;;;;4993817;28;20036;-81
2021/03/11 05:24:37;;;;;;;10.77;8.10;;;9.40;87.10;;;;;;5004712;28;20079;-75
2021/03/11 05:27:03;;;;;;;10.17;7.83;;;9.40;87.10;;;;;;5014419;28;20021;-75
2021/03/11 05:29:29;;;;;;;10.10;7.23;;;9.40;87.10;;;;;;5013406;28;20099;-75
2021/03/11 05:31:55;;;;;;;8.63;7.13;;;9.50;87.20;;;;;;5017327;28;20486;-75
2021/03/11 05:34:20;;;;;;;10.80;8.10;;;9.40;87.10;;;;;;5012970;28;20037;-75
2021/03/11 05:36:46;;;;;;;11.27;7.83;;;9.50;87.10;;;;;;5042294;28;20095;-75
2021/03/11 05:39:12;;;;;;;10.73;7.93;;;9.50;87.00;;;;;;5036253;28;20041;-82
2021/03/11 05:41:40;;;;;;;8.23;6.50;;;9.50;87.00;;;;;;5012870;28;20052;-75
2021/03/11 05:44:07;;;;;;;7.50;6.43;;;9.50;87.00;;;;;;5029252;28;20091;-74
2021/03/11 05:46:38;;;;;;;10.43;6.73;;;9.60;86.90;;;;;;5012897;28;20026;-74
2021/03/11 05:49:04;;;;;;;8.13;6.63;;;9.60;86.90;;;;;;5031526;28;20057;-75
2021/03/11 05:51:30;;;;;;;8.20;6.33;;;9.60;86.80;;;;;;5013830;28;20038;-75
2021/03/11 05:53:58;;;;;;;7.97;6.30;;;9.70;86.60;;;;;;5031553;28;20033;-74
2021/03/11 05:56:24;;;;;;;8.20;6.20;;;9.80;86.50;;;;;;5030751;28;20029;-75
2021/03/11 05:58:50;;;;;;;9.17;6.23;;;9.80;86.30;;;;;;5013429;28;20037;-77
2021/03/11 06:01:18;;;;;;;7.93;6.43;;;9.80;86.30;;;;;;5031479;28;20462;-82
2021/03/11 06:03:47;;;;;;;8.00;6.37;;;9.80;86.20;;;;;;5031621;28;20037;-77
2021/03/11 06:06:13;;;;;;;6.93;5.83;;;9.80;86.10;;;;;;4997849;28;20060;-77
2021/03/11 06:08:39;;;;;;;7.80;6.00;;;9.80;86.20;;;;;;5030534;28;20057;-77
2021/03/11 06:11:06;;;;;;;9.30;6.63;;;9.90;86.30;;;;;;5031574;28;20033;-78
2021/03/11 06:13:31;;;;;;;7.33;6.17;;;9.90;86.20;;;;;;5013137;28;20087;-78
2021/03/11 06:16:15;;;;;;;7.07;5.73;;;9.90;85.90;;;;;;5013444;28;20038;-78
2021/03/11 06:18:41;;;;;;;9.37;5.83;;;9.90;85.70;;;;;;5031818;28;20037;-77
2021/03/11 06:21:07;;;;;;;7.97;5.93;;;9.90;85.80;;;;;;5031575;28;20026;-74
2021/03/11 06:23:33;;;;;;;6.47;5.77;;;9.90;85.60;;;;;;5013257;28;20030;-75
2021/03/11 06:26:01;;;;;;;8.10;6.00;;;10.00;85.60;;;;;;5031461;28;20026;-75
2021/03/11 06:28:45;;;;;;;7.10;5.40;;;10.00;85.40;;;;;;5012596;28;20025;-75
2021/03/11 06:31:23;;;;;;;6.37;5.03;;;10.00;85.40;;;;;;5013845;28;20545;-76
2021/03/11 06:33:50;;;;;;;9.07;6.50;;;10.10;85.50;;;;;;5031859;28;20041;-77
2021/03/11 06:36:17;;;;;;;7.60;5.83;;;10.10;85.90;;;;;;5011242;28;20127;-76
2021/03/11 06:38:43;;;;;;;7.47;5.80;;;10.10;85.60;;;;;;5010274;28;20038;-77
2021/03/11 06:41:10;;;;;;;10.70;6.50;;;10.20;86.00;;;;;;5014127;28;20029;-78
2021/03/11 06:43:57;;;;;;;9.87;7.13;;;10.10;86.50;;;;;;5009432;28;20024;-79
2021/03/11 06:46:25;;;;;;;9.53;6.47;;;10.00;87.50;;;;;;5012960;28;20037;-79
2021/03/11 06:49:11;;;;;;;9.53;6.73;;;10.00;88.00;;;;;;5014100;28;20456;-77
2021/03/11 06:51:37;;;;;;;8.00;6.70;;;10.00;88.30;;;;;;5027828;28;20029;-81
2021/03/11 06:54:03;;;;;;;10.40;6.73;;;9.90;88.50;;;;;;5010559;28;20113;-78
2021/03/11 06:56:29;;;;;;;7.83;6.70;;;9.90;88.50;;;;;;5009898;28;20137;-78
2021/03/11 06:59:02;;;;;;;12.00;8.53;;;9.90;88.60;;;;;;5013211;28;20029;-78
2021/03/11 07:01:29;;;;;;;;;;;9.90;88.90;;;;;;5030972;28;20032;-78
2021/03/11 07:03:55;;;;;;;8.73;7.13;;;9.90;89.30;;;;;;5030474;28;19952;-78
2021/03/11 07:06:31;;;;;;;9.70;6.90;;;9.90;89.50;;;;;;5013185;28;20468;-83
2021/03/11 07:08:57;;;;;;;11.80;7.43;;;9.90;89.60;;;;;;5030217;28;20038;-80
2021/03/11 07:11:24;;;;;;;9.50;7.43;;;9.90;89.70;;;;;;5012138;28;20029;-83
2021/03/11 07:13:50;;;;;;;10.20;7.17;;;9.90;89.90;;;;;;5011791;28;20034;-79
2021/03/11 07:16:19;;;;;;;13.83;7.97;;;10.00;90.00;;;;;;5027357;28;20061;-78
2021/03/11 07:18:45;;;;;;;10.73;7.37;;;10.00;90.00;;;;;;5028516;28;20051;-78
2021/03/11 07:21:12;;;;;;;8.50;6.73;;;10.10;89.90;;;;;;5011178;28;20025;-82
2021/03/11 07:23:49;;;;;;;10.30;7.37;;;10.30;89.80;;;;;;5017318;28;20029;-77
2021/03/11 07:26:15;;;;;;;7.93;6.60;;;10.60;90.10;;;;;;5012325;28;20045;-77
2021/03/11 07:28:41;;;;;;;9.80;6.60;;;11.00;88.20;;;;;;5028774;28;20347;-78
2021/03/11 07:31:07;;;;;;;7.87;6.53;;;11.20;87.20;;;;;;4995249;28;20484;-76
2021/03/11 07:33:37;;;;;;;9.27;6.00;;;11.20;86.30;;;;;;5019361;28;20768;-83
2021/03/11 07:36:05;;;;;;;8.97;5.90;;;11.40;86.30;;;;;;4997191;28;20036;-79
2021/03/11 07:38:32;;;;;;;7.43;6.03;;;11.50;85.60;;;;;;5030276;28;20075;-81
2021/03/11 07:41:01;;;;;;;8.53;6.37;;;11.40;85.40;;;;;;5013631;28;20018;-79
2021/03/11 07:43:28;;;;;;;6.67;5.43;;;11.30;85.50;;;;;;5028726;28;20033;-83
2021/03/11 07:45:55;;;;;;;9.47;6.33;;;11.30;85.60;;;;;;4999950;28;20120;-79
2021/03/11 07:48:22;;;;;;;8.17;5.70;;;11.30;85.70;;;;;;5033655;28;20112;-78
2021/03/11 07:50:49;;;;;;;8.30;6.33;;;11.30;85.60;;;;;;5016512;28;20513;-79
2021/03/11 07:53:15;;;;;;;9.93;6.30;;;11.30;85.60;;;;;;5017373;28;20033;-78
2021/03/11 07:55:40;;;;;;;10.67;6.47;;;11.40;85.80;;;;;;4982751;28;20129;-79
2021/03/11 07:58:12;;;;;;;8.00;5.23;;;11.30;85.70;;;;;;4997639;28;20119;-78
2021/03/11 08:00:38;;;;;;;11.43;5.40;;;11.30;85.40;;;;;;5033993;28;20516;-79
2021/03/11 08:03:14;;;;;;;11.80;5.63;;;11.30;85.50;;;;;;5003122;28;20057;-81
2021/03/11 08:05:40;;;;;;;8.80;5.27;;;11.30;85.50;;;;;;5016361;28;20039;-80
2021/03/11 08:08:20;;;;;;;9.63;4.90;;;11.30;85.40;;;;;;5009740;28;20100;-80
2021/03/11 08:10:51;;;;;;;8.37;6.07;;;11.40;85.50;;;;;;5009435;28;20099;-81
2021/03/11 08:13:28;;;;;;;8.17;5.57;;;11.50;85.60;;;;;;5009091;28;20022;-79
2021/03/11 08:15:54;;;;;;;8.70;5.37;;;11.50;85.60;;;;;;4988438;28;20034;-80
2021/03/11 08:18:32;;;;;;;14.37;7.07;;;11.60;85.70;;;;;;5006117;28;20042;-80
2021/03/11 08:20:58;;;;;;;8.90;6.40;;;11.70;86.00;;;;;;5006562;28;20026;-82
2021/03/11 08:23:31;;;;;;;12.03;6.93;;;11.80;86.10;;;;;;5006456;28;20809;-79
2021/03/11 08:25:57;;;;;;;11.23;6.50;;;12.00;85.70;;;;;;5006638;28;20064;-81
2021/03/11 08:28:25;;;;;;;14.63;8.40;;;12.20;85.20;;;;;;5004022;28;20053;-80
2021/03/11 08:30:51;;;;;;;9.40;6.50;;;12.40;84.50;;;;;;5006267;28;20037;-80
2021/03/11 08:33:20;;;;;;;10.47;7.10;;;12.40;83.70;;;;;;5008985;28;20030;-81
2021/03/11 08:35:50;;;;;;;11.47;6.93;;;12.30;83.50;;;;;;5010319;28;20112;-81
2021/03/11 08:38:19;;;;;;;11.80;6.40;;;12.20;83.50;;;;;;5005817;28;20030;-76
2021/03/11 08:40:51;;;;;;;10.73;4.10;;;12.20;83.50;;;;;;5003287;28;20500;-78
2021/03/11 08:43:43;;;;;;;10.63;4.35;;;12.20;82.20;;;;;;5010622;28;20125;-78
2021/03/11 08:46:22;;;;;;;10.07;3.40;;;12.20;82.10;;;;;;5017596;28;20034;-77
2021/03/11 08:48:58;;;;;;;11.67;4.30;;;12.20;81.40;;;;;;5006763;28;20108;-77
2021/03/11 08:51:23;;;;;;;10.43;4.13;;;12.30;80.40;;;;;;5009528;28;20033;-78
2021/03/11 08:53:59;;;;;;;8.07;2.70;;;12.20;80.10;;;;;;5008893;28;20041;-79
2021/03/11 08:56:28;;;;;;;10.83;3.87;;;12.50;81.30;;;;;;5011514;28;20018;-79
2021/03/11 08:58:59;;;;;;;10.47;3.73;;;13.40;78.50;;;;;;5008805;28;20065;-81
2021/03/11 09:01:28;;;;;;;10.20;2.78;;;14.30;76.00;;;;;;5009174;28;20026;-79
2021/03/11 09:03:54;;;;;;;13.70;3.45;;;14.90;72.60;;;;;;5009541;28;20104;-79
2021/03/11 09:06:39;;;;;;;9.60;2.53;;;15.10;70.60;;;;;;5010151;28;20502;-78
2021/03/11 09:09:05;;;;;;;10.85;2.70;;;15.50;69.60;;;;;;5011372;28;20042;-78
2021/03/11 09:11:31;;;;;;;8.77;1.90;;;16.20;68.00;;;;;;4992656;28;20041;-78
2021/03/11 09:13:57;;;;;;;13.00;2.63;;;16.70;65.40;;;;;;5009242;28;20049;-77
2021/03/11 09:16:24;;;;;;;12.90;2.42;;;16.80;63.60;;;;;;4993461;28;20030;-78
2021/03/11 09:18:58;;;;;;;15.23;2.40;;;16.70;61.90;;;;;;4993267;28;20037;-76
2021/03/11 09:21:35;;;;;;;17.48;2.90;;;16.90;61.60;;;;;;5010636;28;20022;-77
2021/03/11 09:24:02;;;;;;;14.13;3.38;;;17.20;58.90;;;;;;5005104;28;20041;-77
2021/03/11 09:26:30;;;;;;;15.63;3.17;;;17.30;59.20;;;;;;4993665;28;20026;-77
2021/03/11 09:28:57;;;;;;;17.45;3.33;;;17.50;58.80;;;;;;5009056;28;20578;-78
2021/03/11 09:31:24;;;;;;;17.98;3.42;;;17.60;56.80;;;;;;5009762;28;20036;-78
2021/03/11 09:33:50;;;;;;;19.38;3.67;;;17.70;55.90;;;;;;5002944;28;20030;-78
2021/03/11 09:36:16;;;;;;;15.27;4.00;;;17.90;55.70;;;;;;5003328;28;20023;-78
2021/03/11 09:38:43;;;;;;;19.42;3.50;;;18.10;55.60;;;;;;4989294;28;20080;-78
2021/03/11 09:41:10;;;;;;;17.45;3.83;;;18.30;53.80;;;;;;5010019;28;20026;-79
2021/03/11 09:43:39;;;;;;;14.70;3.08;;;18.50;51.90;;;;;;5023380;28;20088;-78
2021/03/11 09:46:15;;;;;;;16.48;3.55;;;18.70;51.10;;;;;;5009804;28;20059;-80
2021/03/11 09:48:42;;;;;;;15.15;3.83;;;18.80;50.80;;;;;;5010301;28;20072;-80
2021/03/11 09:51:11;;;;;;;19.00;5.55;;;18.80;51.60;;;;;;5010715;28;20092;-80
2021/03/11 09:53:39;;;;;;;17.40;3.53;;;18.50;53.00;;;;;;5007908;28;20448;-82
2021/03/11 09:56:09;;;;;;;14.68;3.15;;;18.50;51.60;;;;;;5009795;28;20057;-80
2021/03/11 09:58:34;;;;;;;19.23;4.05;;;18.40;51.50;;;;;;5010995;28;20025;-78
2021/03/11 10:01:00;;;;;;;14.52;3.40;;;18.10;53.50;;;;;;5011906;28;20034;-79
2021/03/11 10:03:28;;;;;;;14.93;3.60;;;17.90;54.60;;;;;;4995494;28;20072;-77
2021/03/11 10:05:57;;;;;;;14.07;3.38;;;18.20;53.40;;;;;;5008174;28;20034;-77
2021/03/11 10:08:30;;;;;;;10.90;2.83;;;18.60;52.20;;;;;;5014354;28;20076;-79
2021/03/11 10:11:00;;;;;;;14.15;2.25;;;18.70;48.90;;;;;;5009700;28;20057;-78
2021/03/11 10:14:01;;;;;;;11.57;2.22;;;18.80;47.60;;;;;;5013453;28;20510;-80
2021/03/11 10:16:35;;;;;;;10.75;1.90;;;18.20;47.50;;;;;;5003018;28;20498;-75
2021/03/11 10:19:12;;;;;;;9.00;1.20;;;18.10;48.90;;;;;;5005064;28;20370;-76
2021/03/11 10:21:53;;;;;;;11.00;1.95;;;18.00;48.60;;;;;;5010319;28;20018;-79
2021/03/11 10:24:38;;;;;;;14.68;1.80;;;17.90;48.40;;;;;;5004077;28;20026;-77
2021/03/11 10:27:32;;;;;;;9.73;1.70;;;17.90;47.60;;;;;;5008712;28;20627;-74
2021/03/11 10:30:03;;;;;;;8.05;1.60;;;18.00;47.50;;;;;;5002836;28;20084;-78
2021/03/11 10:32:29;;;;;;;13.85;2.38;;;18.10;46.30;;;;;;5010808;28;20030;-75
2021/03/11 10:34:55;;;;;;;15.45;2.30;;;18.10;45.40;;;;;;5013952;28;20064;-74
2021/03/11 10:37:31;;;;;;;17.10;1.83;;;18.10;45.80;;;;;;5013371;28;20030;-74
2021/03/11 10:39:59;;;;;;;11.38;2.50;;;18.30;45.90;;;;;;5014123;28;20087;-75
2021/03/11 10:42:37;;;;;;;9.88;2.45;;;18.40;44.90;;;;;;5015358;28;20040;-76
2021/03/11 10:45:03;;;;;;;12.32;2.60;;;18.40;45.70;;;;;;4994495;28;20030;-78
2021/03/11 10:47:29;;;;;;;14.93;2.22;;;18.30;45.20;;;;;;4997616;28;20030;-76
2021/03/11 10:49:55;;;;;;;13.75;3.80;;;18.10;45.20;;;;;;4995198;28;20056;-77
2021/03/11 10:52:21;;;;;;;16.13;2.65;;;18.00;47.00;;;;;;5003728;28;20042;-79
2021/03/11 10:54:48;;;;;;;12.45;2.33;;;17.90;45.70;;;;;;4992720;28;20033;-81
2021/03/11 10:57:18;;;;;;;13.52;2.35;;;17.70;46.00;;;;;;5007596;28;20091;-76
2021/03/11 11:00:03;;;;;;;12.98;2.83;;;17.70;45.80;;;;;;5008190;28;20040;-79
2021/03/11 11:02:30;;;;;;;12.25;3.22;;;17.50;46.50;;;;;;5007310;28;20026;-76
2021/03/11 11:05:00;;;;;;;15.85;2.63;;;17.50;47.10;;;;;;5007535;28;20036;-75
2021/03/11 11:07:26;;;;;;;11.15;2.60;;;17.40;46.00;;;;;;5015583;28;20050;-74
2021/03/11 11:09:53;;;;;;;13.05;2.75;;;17.30;46.40;;;;;;5013469;28;20547;-75
2021/03/11 11:12:21;;;;;;;11.07;2.65;;;17.30;46.10;;;;;;5029818;28;20057;-76
2021/03/11 11:14:50;;;;;;;11.07;2.15;;;17.30;46.30;;;;;;5033094;28;20021;-77
2021/03/11 11:17:16;;;;;;;10.77;2.25;;;17.60;45.70;;;;;;5030372;28;20033;-73
2021/03/11 11:19:43;;;;;;;14.05;3.15;;;17.60;45.50;;;;;;5032393;28;20033;-74
2021/03/11 11:22:10;;;;;;;11.10;3.22;;;17.50;46.20;;;;;;5030916;28;20290;-72
2021/03/11 11:24:40;;;;;;;13.02;2.10;;;17.50;46.50;;;;;;5033254;28;20029;-75
2021/03/11 11:27:09;;;;;;;12.48;2.50;;;17.80;46.70;;;;;;5014889;28;20124;-73
2021/03/11 11:29:34;;;;;;;11.45;2.55;;;17.90;46.10;;;;;;5014808;28;20037;-73
2021/03/11 11:32:00;;;;;;;14.80;3.40;;;17.90;45.80;;;;;;5011980;28;20482;-73
2021/03/11 11:34:26;;;;;;;15.05;2.65;;;17.80;46.80;;;;;;5014113;28;20109;-74
2021/03/11 11:36:51;;;;;;;11.52;2.28;;;17.80;46.80;;;;;;5033272;28;20044;-78
2021/03/11 11:39:17;;;;;;;10.40;2.40;;;17.70;46.70;;;;;;5034320;28;20457;-74
2021/03/11 11:41:44;;;;;;;12.13;2.03;;;17.70;47.30;;;;;;5033623;28;20393;-74
2021/03/11 11:44:10;;;;;;;9.85;2.20;;;17.60;46.80;;;;;;5033346;28;20044;-74
2021/03/11 11:46:36;;;;;;;9.98;2.35;;;17.40;46.20;;;;;;5016748;28;20037;-74
2021/03/11 11:49:03;;;;;;;8.35;1.88;;;17.20;45.80;;;;;;5016479;28;20046;-74
2021/03/11 11:51:30;;;;;;;10.77;1.90;;;17.10;45.50;;;;;;5036536;28;20061;-73
2021/03/11 11:53:55;;;;;;;7.65;1.40;;;16.90;45.20;;;;;;5033478;28;20033;-74
2021/03/11 11:56:21;;;;;;;7.65;1.35;;;16.60;44.90;;;;;;5016862;28;20116;-74
2021/03/11 11:58:47;;;;;;;10.32;2.08;;;16.40;45.40;;;;;;5032930;28;20385;-74
2021/03/11 12:01:14;;;;;;;11.85;2.10;;;16.30;46.60;;;;;;5015786;28;20021;-74
2021/03/11 12:03:40;;;;;;;14.15;1.80;;;16.10;46.70;;;;;;5033989;28;20072;-75
2021/03/11 12:06:06;;;;;;;10.43;1.52;;;15.90;47.50;;;;;;5029936;28;20041;-74
2021/03/11 12:08:32;;;;;;;13.20;1.58;;;15.80;48.20;;;;;;5014101;28;20046;-74
2021/03/11 12:10:57;;;;;;;10.43;1.83;;;15.80;48.40;;;;;;5013584;28;20048;-74
2021/03/11 12:13:23;;;;;;;9.98;1.48;;;15.80;48.80;;;;;;5016217;28;20064;-73
2021/03/11 12:15:49;;;;;;;11.10;1.80;;;15.70;48.90;;;;;;5029565;28;20032;-73
2021/03/11 12:18:15;;;;;;;10.50;2.03;;;15.70;49.00;;;;;;5030042;28;20120;-73
2021/03/11 12:20:40;;;;;;;12.48;2.55;;;15.70;48.90;;;;;;5033158;28;20037;-75
2021/03/11 12:23:06;;;;;;;14.88;3.05;;;15.70;49.70;;;;;;5015261;28;20347;-75
2021/03/11 12:25:33;;;;;;;14.88;3.22;;;15.80;49.40;;;;;;4999811;28;20447;-74
2021/03/11 12:27:59;;;;;;;19.52;3.42;;;15.80;49.70;;;;;;5032630;28;20033;-75
2021/03/11 12:30:26;;;;;;;12.50;2.20;;;15.70;49.90;;;;;;5015270;28;20393;-75
2021/03/11 12:32:52;;;;;;;13.75;2.40;;;15.70;50.20;;;;;;5009445;28;20070;-76
2021/03/11 12:35:18;;;;;;;17.10;3.13;;;15.60;51.00;;;;;;5014431;28;20029;-74
2021/03/11 12:37:44;;;;;;;18.92;2.85;;;15.30;54.10;;;;;;5015499;28;20034;-75
2021/03/11 12:40:11;;;;;;;12.77;2.78;;;15.00;53.80;;;;;;5021449;28;20093;-75
2021/03/11 12:42:39;;;;;;;14.40;3.05;;;14.90;53.70;;;;;;5037075;28;20049;-73
2021/03/11 12:45:06;;;;;;;16.27;3.35;;;14.90;53.70;;;;;;4998416;28;20030;-74
2021/03/11 12:47:31;;;;;;;14.98;2.30;;;14.90;53.60;;;;;;5031697;28;20369;-77